Time;durP1;ratioP1;P1;durP2;ratioP2;P2;SDS_P1;SDS_P2;PMS_P1;PMS_P2;Temp;Humidity;BMP_temperature;BMP_pressure;BME280_temperature;BME280_humidity;BME280_pressure;Samples;Min_cycle;Max_cycle;Signal;HPM_P1;HPM_P2
2022/03/12 00:01:04;;;;;;;159.82;64.10;;;;;;;;;;5077025;28;20129;-74
2022/03/12 00:03:31;;;;;;;171.85;72.05;;;;;;;;;;5085273;28;20036;-73
2022/03/12 00:05:56;;;;;;;291.38;129.48;;;;;;;;;;5083658;28;20121;-71
2022/03/12 00:08:23;;;;;;;352.80;146.32;;;;;;;;;;5077114;28;20458;-73
2022/03/12 00:10:51;;;;;;;390.25;173.18;;;;;;;;;;5078772;28;20435;-73
2022/03/12 00:13:19;;;;;;;290.95;126.57;;;;;;;;;;5081975;28;20347;-72
2022/03/12 00:15:47;;;;;;;303.02;125.82;;;;;;;;;;5084761;28;20030;-73
2022/03/12 00:18:16;;;;;;;251.15;112.28;;;;;;;;;;5084325;28;20028;-73
2022/03/12 00:20:42;;;;;;;202.63;97.47;;;;;;;;;;5084202;28;20020;-76
2022/03/12 00:23:10;;;;;;;194.80;91.93;;;;;;;;;;5076611;28;20020;-73
2022/03/12 00:25:38;;;;;;;257.08;120.38;;;;;;;;;;5083043;28;20042;-76
2022/03/12 00:28:04;;;;;;;216.02;100.43;;;;;;;;;;5075771;28;20072;-72
2022/03/12 00:30:29;;;;;;;167.32;81.97;;;;;;;;;;5082286;28;20039;-73
2022/03/12 00:32:55;;;;;;;186.30;86.65;;;;;;;;;;5083287;28;20453;-73
2022/03/12 00:35:20;;;;;;;176.18;84.25;;;;;;;;;;5073814;28;20097;-72
2022/03/12 00:37:46;;;;;;;176.57;85.95;;;;;;;;;;5079014;28;20424;-73
2022/03/12 00:40:13;;;;;;;185.70;89.53;;;;;;;;;;5078186;28;20027;-73
2022/03/12 00:42:38;;;;;;;181.70;85.75;;;;;;;;;;5085689;28;20110;-73
2022/03/12 00:45:04;;;;;;;170.05;81.18;;;;;;;;;;5085433;28;20106;-72
2022/03/12 00:47:31;;;;;;;158.35;75.80;;;;;;;;;;5080088;28;20030;-73
2022/03/12 00:49:57;;;;;;;155.45;73.60;;;;;;;;;;5078604;28;20435;-72
2022/03/12 00:52:22;;;;;;;176.25;88.28;;;;;;;;;;5080401;28;20077;-72
2022/03/12 00:54:48;;;;;;;171.00;79.88;;;;;;;;;;5077813;28;20031;-72
2022/03/12 00:57:13;;;;;;;204.02;93.50;;;;;;;;;;5082850;28;20032;-72
2022/03/12 00:59:39;;;;;;;189.43;89.60;;;;;;;;;;5077749;28;20032;-72
2022/03/12 01:02:05;;;;;;;189.13;87.68;;;;;;;;;;5086586;28;20028;-73
2022/03/12 01:04:31;;;;;;;209.00;98.20;;;;;;;;;;5078130;28;20012;-73
2022/03/12 01:06:56;;;;;;;187.05;84.35;;;;;;;;;;5078406;28;20024;-73
2022/03/12 01:09:21;;;;;;;197.00;87.75;;;;;;;;;;5072729;28;20024;-73
2022/03/12 01:11:47;;;;;;;188.10;86.88;;;;;;;;;;5066393;28;20028;-73
2022/03/12 01:14:12;;;;;;;190.63;87.03;;;;;;;;;;5082588;28;20143;-71
2022/03/12 01:16:38;;;;;;;202.07;92.80;;;;;;;;;;5083388;28;20057;-73
2022/03/12 01:19:03;;;;;;;248.50;109.75;;;;;;;;;;5084770;28;20024;-72
2022/03/12 01:21:28;;;;;;;216.70;99.65;;;;;;;;;;5075814;28;20031;-73
2022/03/12 01:23:54;;;;;;;207.30;95.70;;;;;;;;;;5071470;28;20034;-75
2022/03/12 01:26:21;;;;;;;175.57;84.22;;;;;;;;;;5075549;28;20035;-75
2022/03/12 01:28:46;;;;;;;184.82;84.30;;;;;;;;;;5084339;28;20105;-73
2022/03/12 01:31:12;;;;;;;179.85;88.35;;;;;;;;;;5064267;28;20032;-73
2022/03/12 01:33:37;;;;;;;210.00;96.97;;;;;;;;;;5083650;28;20066;-73
2022/03/12 01:36:03;;;;;;;200.07;95.80;;;;;;;;;;5083218;28;20032;-72
2022/03/12 01:38:33;;;;;;;206.82;99.97;;;;;;;;;;5082180;28;20447;-74
2022/03/12 01:41:02;;;;;;;252.90;119.90;;;;;;;;;;5082902;28;20024;-73
2022/03/12 01:43:30;;;;;;;257.85;117.82;;;;;;;;;;5073045;28;20450;-72
2022/03/12 01:45:56;;;;;;;244.38;114.45;;;;;;;;;;5082155;28;20459;-73
2022/03/12 01:48:21;;;;;;;216.20;100.95;;;;;;;;;;5085134;28;20016;-74
2022/03/12 01:50:46;;;;;;;248.60;107.88;;;;;;;;;;5083793;28;20176;-74
2022/03/12 01:53:12;;;;;;;307.30;133.73;;;;;;;;;;5066938;28;20036;-74
2022/03/12 01:55:39;;;;;;;188.25;86.47;;;;;;;;;;5069716;28;20028;-72
2022/03/12 01:58:05;;;;;;;127.47;57.95;;;;;;;;;;5081456;28;20039;-74
2022/03/12 02:00:45;;;;;;;79.70;38.65;;;;;;;;;;5082611;28;20023;-73
2022/03/12 02:03:11;;;;;;;56.72;31.73;;;;;;;;;;5083086;28;20401;-72
2022/03/12 02:05:37;;;;;;;53.10;26.90;;;;;;;;;;5082521;28;20046;-74
2022/03/12 02:08:03;;;;;;;65.25;33.22;;;;;;;;;;5083320;28;20023;-73
2022/03/12 02:10:29;;;;;;;78.28;38.72;;;;;;;;;;5082086;28;20024;-76
2022/03/12 02:12:54;;;;;;;72.82;38.42;;;;;;;;;;5077860;28;20502;-75
2022/03/12 02:15:22;;;;;;;66.68;35.65;;;;;;;;;;5073132;28;20363;-76
2022/03/12 02:17:49;;;;;;;100.97;46.53;;;;;;;;;;5078390;28;20111;-75
2022/03/12 02:20:18;;;;;;;121.25;50.45;;;;;;;;;;5074541;28;20419;-74
2022/03/12 02:22:45;;;;;;;114.15;51.60;;;;;;;;;;5083267;28;20102;-73
2022/03/12 02:25:10;;;;;;;113.50;57.33;;;;;;;;;;5078476;28;20035;-73
2022/03/12 02:27:35;;;;;;;131.00;66.80;;;;;;;;;;5077896;28;20020;-73
2022/03/12 02:30:02;;;;;;;93.82;49.92;;;;;;;;;;5081680;28;20031;-72
2022/03/12 02:32:28;;;;;;;81.32;43.13;;;;;;;;;;5083875;28;20016;-72
2022/03/12 02:34:54;;;;;;;98.35;51.90;;;;;;;;;;5082806;28;20094;-73
2022/03/12 02:37:45;;;;;;;82.55;45.58;;;;;;;;;;5071716;28;20027;-73
2022/03/12 02:40:07;;;;;;;78.82;42.63;;;;;;;;;;5076954;28;20044;-73
2022/03/12 02:42:36;;;;;;;73.22;41.15;;;;;;;;;;5082689;28;20028;-73
2022/03/12 02:45:02;;;;;;;;;;;;;;;;;;5083556;28;20042;-72
2022/03/12 02:47:30;;;;;;;75.65;45.22;;;;;;;;;;5083144;28;19911;-74
2022/03/12 02:49:58;;;;;;;73.30;41.65;;;;;;;;;;5080843;28;20024;-71
2022/03/12 02:52:27;;;;;;;81.40;47.38;;;;;;;;;;5080780;28;20466;-72
2022/03/12 02:54:55;;;;;;;73.57;41.67;;;;;;;;;;5081055;28;20020;-72
2022/03/12 02:57:26;;;;;;;61.90;34.67;;;;;;;;;;5081652;28;20043;-73
2022/03/12 02:59:53;;;;;;;71.60;39.85;;;;;;;;;;5070553;28;20054;-73
2022/03/12 03:02:23;;;;;;;81.57;45.03;;;;;;;;;;5076698;28;20024;-71
2022/03/12 03:04:49;;;;;;;95.07;50.00;;;;;;;;;;5083043;28;20483;-71
2022/03/12 03:07:14;;;;;;;77.75;39.88;;;;;;;;;;5080934;28;20565;-71
2022/03/12 03:09:40;;;;;;;70.82;39.50;;;;;;;;;;5065037;28;20115;-72
2022/03/12 03:12:09;;;;;;;63.80;36.65;;;;;;;;;;5082379;28;20077;-72
2022/03/12 03:14:35;;;;;;;69.85;38.50;;;;;;;;;;5081482;28;20148;-71
2022/03/12 03:17:01;;;;;;;69.65;38.33;;;;;;;;;;5081186;28;20020;-72
2022/03/12 03:19:27;;;;;;;74.28;40.97;;;;;;;;;;5081123;28;20113;-72
2022/03/12 03:21:53;;;;;;;73.80;39.33;;;;;;;;;;5070587;28;20413;-73
2022/03/12 03:24:19;;;;;;;67.35;36.88;;;;;;;;;;5083685;28;20088;-71
2022/03/12 03:26:45;;;;;;;71.63;41.15;;;;;;;;;;5084914;28;20036;-72
2022/03/12 03:29:10;;;;;;;82.13;41.92;;;;;;;;;;5084424;28;20028;-72
2022/03/12 03:31:36;;;;;;;99.20;55.50;;;;;;;;;;5085934;28;20055;-72
2022/03/12 03:34:01;;;;;;;89.10;47.88;;;;;;;;;;5086315;28;20047;-72
2022/03/12 03:36:27;;;;;;;78.97;45.28;;;;;;;;;;5077865;28;20028;-73
2022/03/12 03:38:52;;;;;;;99.45;52.10;;;;;;;;;;5083779;28;20107;-73
2022/03/12 03:41:17;;;;;;;107.95;54.88;;;;;;;;;;5081128;28;20405;-71
2022/03/12 03:43:45;;;;;;;123.50;61.58;;;;;;;;;;5074146;28;20314;-70
2022/03/12 03:46:10;;;;;;;120.75;72.60;;;;;;;;;;5075007;28;20027;-72
2022/03/12 03:48:39;;;;;;;159.98;89.28;;;;;;;;;;5084931;28;20419;-72
2022/03/12 03:51:05;;;;;;;134.02;70.82;;;;;;;;;;5086203;28;20396;-72
2022/03/12 03:53:30;;;;;;;101.15;51.08;;;;;;;;;;5086041;28;20074;-71
2022/03/12 03:56:00;;;;;;;148.63;81.03;;;;;;;;;;5084023;28;20038;-72
2022/03/12 03:58:26;;;;;;;168.35;89.68;;;;;;;;;;5086784;28;20032;-73
2022/03/12 04:00:59;;;;;;;123.78;63.58;;;;;;;;;;5067281;28;20043;-72
2022/03/12 04:03:25;;;;;;;127.95;68.88;;;;;;;;;;5074451;28;20409;-73
2022/03/12 04:05:51;;;;;;;133.45;74.13;;;;;;;;;;5087406;28;20033;-72
2022/03/12 04:08:16;;;;;;;163.52;86.30;;;;;;;;;;5087658;28;21320;-72
2022/03/12 04:10:42;;;;;;;146.05;76.95;;;;;;;;;;5084716;28;20514;-72
2022/03/12 04:13:12;;;;;;;124.32;68.10;;;;;;;;;;5084436;28;20149;-71
2022/03/12 04:15:38;;;;;;;133.95;74.80;;;;;;;;;;5066340;28;20397;-71
2022/03/12 04:18:04;;;;;;;144.50;79.60;;;;;;;;;;5083921;28;20032;-71
2022/03/12 04:20:30;;;;;;;144.30;79.97;;;;;;;;;;5084937;28;20767;-72
2022/03/12 04:22:55;;;;;;;167.25;84.05;;;;;;;;;;5084658;28;20016;-72
2022/03/12 04:25:21;;;;;;;133.15;63.72;;;;;;;;;;5083731;28;20519;-71
2022/03/12 04:27:47;;;;;;;102.30;55.40;;;;;;;;;;5084375;28;20024;-72
2022/03/12 04:30:13;;;;;;;92.68;50.95;;;;;;;;;;5070157;28;20038;-73
2022/03/12 04:32:39;;;;;;;85.15;47.45;;;;;;;;;;5077675;28;20024;-71
2022/03/12 04:35:05;;;;;;;106.60;56.97;;;;;;;;;;5065150;28;20036;-74
2022/03/12 04:37:31;;;;;;;77.95;42.55;;;;;;;;;;5083311;28;20036;-73
2022/03/12 04:39:56;;;;;;;83.25;43.33;;;;;;;;;;5082526;28;20024;-70
2022/03/12 04:42:22;;;;;;;76.63;39.95;;;;;;;;;;5086139;28;20032;-72
2022/03/12 04:44:48;;;;;;;61.83;35.70;;;;;;;;;;5069678;28;20058;-72
2022/03/12 04:47:13;;;;;;;65.78;37.03;;;;;;;;;;5084675;28;20579;-74
2022/03/12 04:49:39;;;;;;;72.97;38.78;;;;;;;;;;5083497;28;20073;-74
2022/03/12 04:52:04;;;;;;;105.18;56.25;;;;;;;;;;5068117;28;20038;-74
2022/03/12 04:54:33;;;;;;;97.07;52.30;;;;;;;;;;5083174;28;20303;-71
2022/03/12 04:56:58;;;;;;;94.57;52.13;;;;;;;;;;5084211;28;20056;-72
2022/03/12 04:59:24;;;;;;;92.95;54.35;;;;;;;;;;5083960;28;20367;-72
2022/03/12 05:01:49;;;;;;;86.63;46.65;;;;;;;;;;5074674;28;20035;-73
2022/03/12 05:04:14;;;;;;;78.97;46.83;;;;;;;;;;5070644;28;20043;-72
2022/03/12 05:06:40;;;;;;;75.82;42.60;;;;;;;;;;5078678;28;20028;-72
2022/03/12 05:09:05;;;;;;;74.88;43.60;;;;;;;;;;5082820;28;20023;-71
2022/03/12 05:11:34;;;;;;;75.93;44.03;;;;;;;;;;5088302;28;20042;-70
2022/03/12 05:13:59;;;;;;;74.00;44.28;;;;;;;;;;5062105;28;20048;-73
2022/03/12 05:16:27;;;;;;;88.25;48.25;;;;;;;;;;5070902;28;20038;-74
2022/03/12 05:18:53;;;;;;;135.13;71.22;;;;;;;;;;5070876;28;20093;-73
2022/03/12 05:21:18;;;;;;;160.25;81.93;;;;;;;;;;5072816;28;20020;-74
2022/03/12 05:23:44;;;;;;;120.72;63.92;;;;;;;;;;5070586;28;20034;-73
2022/03/12 05:26:09;;;;;;;105.18;54.38;;;;;;;;;;5075573;28;20098;-73
2022/03/12 05:28:39;;;;;;;81.65;44.08;;;;;;;;;;5072440;28;20106;-73
2022/03/12 05:31:04;;;;;;;;;;;;;;;;;;5071596;28;20088;-75
2022/03/12 05:33:30;;;;;;;101.35;60.47;;;;;;;;;;5071813;28;19915;-74
2022/03/12 05:35:55;;;;;;;110.13;64.70;;;;;;;;;;5070671;28;20032;-73
2022/03/12 05:38:25;;;;;;;104.65;59.85;;;;;;;;;;5069787;28;20024;-74
2022/03/12 05:40:50;;;;;;;87.68;49.38;;;;;;;;;;5079902;28;20023;-74
2022/03/12 05:43:17;;;;;;;101.07;56.17;;;;;;;;;;5071251;28;20043;-75
2022/03/12 05:45:46;;;;;;;74.60;43.45;;;;;;;;;;5061772;28;20084;-72
2022/03/12 05:48:13;;;;;;;79.55;43.92;;;;;;;;;;5081333;28;20032;-75
2022/03/12 05:50:39;;;;;;;92.63;48.17;;;;;;;;;;5082919;28;20028;-69
2022/03/12 05:53:09;;;;;;;151.35;80.70;;;;;;;;;;5079632;28;20435;-71
2022/03/12 05:55:38;;;;;;;266.98;137.38;;;;;;;;;;5073042;28;20027;-72
2022/03/12 05:58:04;;;;;;;345.20;153.13;;;;;;;;;;5081715;28;20077;-70
2022/03/12 06:00:30;;;;;;;237.93;115.47;;;;;;;;;;5081816;28;20340;-70
2022/03/12 06:02:58;;;;;;;344.05;166.35;;;;;;;;;;5057855;28;20024;-71
2022/03/12 06:05:24;;;;;;;335.88;186.48;;;;;;;;;;5069602;28;20085;-72
2022/03/12 06:07:50;;;;;;;286.15;158.15;;;;;;;;;;5073042;28;20024;-70
2022/03/12 06:10:16;;;;;;;352.42;166.77;;;;;;;;;;5075589;28;20450;-72
2022/03/12 06:12:45;;;;;;;231.63;109.32;;;;;;;;;;5075335;28;20048;-70
2022/03/12 06:15:12;;;;;;;210.40;110.47;;;;;;;;;;5071815;28;20035;-71
2022/03/12 06:17:38;;;;;;;239.20;117.40;;;;;;;;;;5072153;28;20031;-73
2022/03/12 06:20:04;;;;;;;305.67;154.55;;;;;;;;;;5082870;28;20296;-71
2022/03/12 06:22:29;;;;;;;261.52;136.23;;;;;;;;;;5074510;28;20137;-71
2022/03/12 06:24:55;;;;;;;232.68;118.32;;;;;;;;;;5080603;28;20492;-70
2022/03/12 06:27:20;;;;;;;154.30;72.65;;;;;;;;;;5081817;28;20092;-77
2022/03/12 06:29:46;;;;;;;142.02;66.78;;;;;;;;;;5082455;28;20127;-73
2022/03/12 06:32:13;;;;;;;333.05;129.20;;;;;;;;;;5074407;28;20024;-72
2022/03/12 06:34:40;;;;;;;311.63;122.45;;;;;;;;;;5055659;28;20024;-72
2022/03/12 06:37:07;;;;;;;229.20;88.90;;;;;;;;;;5055347;28;20398;-72
2022/03/12 06:39:32;;;;;;;124.97;54.22;;;;;;;;;;5070037;28;20020;-72
2022/03/12 06:41:59;;;;;;;163.30;77.70;;;;;;;;;;5074280;28;20413;-71
2022/03/12 06:44:31;;;;;;;232.73;120.18;;;;;;;;;;5061212;28;20043;-75
2022/03/12 06:46:57;;;;;;;248.48;107.72;;;;;;;;;;5069476;28;20032;-72
2022/03/12 06:49:24;;;;;;;274.92;125.43;;;;;;;;;;5069555;28;20031;-72
2022/03/12 06:51:50;;;;;;;179.45;83.65;;;;;;;;;;5053822;28;20073;-72
2022/03/12 06:54:15;;;;;;;128.82;67.43;;;;;;;;;;5076991;28;20396;-72
2022/03/12 06:56:41;;;;;;;166.57;73.10;;;;;;;;;;5065752;28;20035;-72
2022/03/12 06:59:06;;;;;;;91.88;47.50;;;;;;;;;;5067622;28;20454;-72
2022/03/12 07:01:32;;;;;;;104.75;54.15;;;;;;;;;;5092879;28;20031;-72
2022/03/12 07:03:58;;;;;;;82.05;44.33;;;;;;;;;;5082970;28;20716;-71
2022/03/12 07:06:23;;;;;;;80.15;45.75;;;;;;;;;;5074562;28;20027;-71
2022/03/12 07:08:49;;;;;;;90.60;44.90;;;;;;;;;;5077124;28;20035;-71
2022/03/12 07:11:15;;;;;;;75.35;42.28;;;;;;;;;;5061832;28;20035;-70
2022/03/12 07:13:41;;;;;;;79.90;43.60;;;;;;;;;;5072670;28;20044;-74
2022/03/12 07:16:06;;;;;;;63.25;36.33;;;;;;;;;;5074057;28;20367;-72
2022/03/12 07:18:32;;;;;;;53.00;30.73;;;;;;;;;;5074872;28;20362;-71
2022/03/12 07:20:57;;;;;;;54.15;33.08;;;;;;;;;;5072400;28;20020;-71
2022/03/12 07:23:23;;;;;;;80.78;49.42;;;;;;;;;;5072694;28;20039;-70
2022/03/12 07:25:48;;;;;;;69.55;41.97;;;;;;;;;;5061377;28;20039;-71
2022/03/12 07:28:17;;;;;;;119.30;71.07;;;;;;;;;;5081546;28;20123;-71
2022/03/12 07:30:42;;;;;;;82.22;43.58;;;;;;;;;;5071320;28;21249;-71
2022/03/12 07:33:09;;;;;;;60.33;34.60;;;;;;;;;;5073070;28;20030;-72
2022/03/12 07:35:35;;;;;;;64.18;35.55;;;;;;;;;;5056235;28;20109;-71
2022/03/12 07:38:00;;;;;;;63.88;36.63;;;;;;;;;;5068503;28;20381;-72
2022/03/12 07:40:26;;;;;;;68.05;35.20;;;;;;;;;;5084637;28;20113;-71
2022/03/12 07:42:51;;;;;;;66.88;38.20;;;;;;;;;;5083689;28;20123;-71
2022/03/12 07:45:16;;;;;;;54.80;31.13;;;;;;;;;;5085080;28;20024;-71
2022/03/12 07:47:42;;;;;;;57.40;33.05;;;;;;;;;;5058717;28;20020;-72
2022/03/12 07:50:09;;;;;;;92.35;44.95;;;;;;;;;;5084359;28;20024;-70
2022/03/12 07:52:34;;;;;;;128.48;62.15;;;;;;;;;;5086634;28;20023;-72
2022/03/12 07:55:00;;;;;;;241.73;107.07;;;;;;;;;;5071628;28;20055;-71
2022/03/12 07:57:28;;;;;;;175.88;83.30;;;;;;;;;;5069584;28;20023;-70
2022/03/12 07:59:53;;;;;;;105.10;57.47;;;;;;;;;;5083947;28;21066;-71
2022/03/12 08:02:19;;;;;;;67.70;40.15;;;;;;;;;;5081123;28;20103;-71
2022/03/12 08:04:44;;;;;;;41.28;24.05;;;;;;;;;;5070852;28;20028;-75
2022/03/12 08:07:10;;;;;;;54.95;31.10;;;;;;;;;;5054776;28;20032;-74
2022/03/12 08:09:35;;;;;;;45.30;27.25;;;;;;;;;;5072973;28;20020;-76
2022/03/12 08:12:01;;;;;;;86.70;46.88;;;;;;;;;;5071280;28;20027;-72
2022/03/12 08:14:27;;;;;;;51.42;30.27;;;;;;;;;;5073471;28;20362;-71
2022/03/12 08:16:52;;;;;;;38.08;22.58;;;;;;;;;;5064408;28;20298;-72
2022/03/12 08:19:18;;;;;;;36.15;23.42;;;;;;;;;;5071616;28;20039;-72
2022/03/12 08:21:44;;;;;;;34.25;22.00;;;;;;;;;;5072553;28;20020;-74
2022/03/12 08:24:10;;;;;;;38.45;24.05;;;;;;;;;;5081529;28;20040;-77
2022/03/12 08:26:41;;;;;;;24.55;15.88;;;;;;;;;;5085447;28;20059;-72
2022/03/12 08:29:06;;;;;;;28.75;17.70;;;;;;;;;;5070605;28;20039;-71
2022/03/12 08:31:32;;;;;;;34.25;21.33;;;;;;;;;;5071857;28;20563;-73
2022/03/12 08:33:57;;;;;;;42.88;25.85;;;;;;;;;;5072644;28;20060;-74
2022/03/12 08:36:23;;;;;;;27.38;17.65;;;;;;;;;;5074194;28;21415;-75
2022/03/12 08:38:48;;;;;;;47.88;28.42;;;;;;;;;;5072152;28;20035;-76
2022/03/12 08:41:15;;;;;;;25.50;16.58;;;;;;;;;;5072220;28;20153;-72
2022/03/12 08:43:40;;;;;;;35.38;22.55;;;;;;;;;;5071718;28;20020;-74
2022/03/12 08:46:07;;;;;;;162.40;80.20;;;;;;;;;;5071669;28;20488;-71
2022/03/12 08:48:33;;;;;;;89.70;47.67;;;;;;;;;;5071472;28;20024;-76
2022/03/12 08:50:58;;;;;;;51.85;29.30;;;;;;;;;;5060767;28;20375;-73
2022/03/12 08:53:24;;;;;;;42.92;23.88;;;;;;;;;;5080285;28;20016;-73
2022/03/12 08:55:50;;;;;;;176.02;93.25;;;;;;;;;;5084066;28;20056;-74
2022/03/12 08:58:16;;;;;;;67.10;36.70;;;;;;;;;;5051630;28;20411;-73
2022/03/12 09:00:42;;;;;;;29.92;19.58;;;;;;;;;;5072952;28;20027;-73
2022/03/12 09:03:09;;;;;;;14.98;10.57;;;;;;;;;;5083038;28;20514;-73
2022/03/12 09:05:34;;;;;;;26.00;17.70;;;;;;;;;;5072988;28;20016;-75
2022/03/12 09:08:00;;;;;;;22.52;14.98;;;;;;;;;;5073208;28;20408;-75
2022/03/12 09:10:25;;;;;;;32.88;20.27;;;;;;;;;;5072736;28;20016;-74
2022/03/12 09:12:51;;;;;;;28.75;14.70;;;;;;;;;;5073783;28;20120;-74
2022/03/12 09:15:21;;;;;;;399.77;178.27;;;;;;;;;;5070527;28;20031;-75
2022/03/12 09:17:47;;;;;;;463.17;251.25;;;;;;;;;;5074397;28;20081;-73
2022/03/12 09:20:12;;;;;;;397.35;175.43;;;;;;;;;;5068826;28;20035;-72
2022/03/12 09:22:38;;;;;;;331.17;144.77;;;;;;;;;;5068652;28;20024;-73
2022/03/12 09:25:04;;;;;;;131.32;87.20;;;;;;;;;;5081784;28;20466;-72
2022/03/12 09:27:29;;;;;;;364.52;132.80;;;;;;;;;;5078314;28;20165;-74
2022/03/12 09:29:55;;;;;;;271.15;91.80;;;;;;;;;;5076664;28;20123;-76
2022/03/12 09:32:21;;;;;;;127.13;68.35;;;;;;;;;;5072796;28;20054;-73
2022/03/12 09:34:46;;;;;;;39.47;24.08;;;;;;;;;;5081221;28;20149;-74
2022/03/12 09:37:11;;;;;;;280.92;134.00;;;;;;;;;;5053991;28;20028;-74
2022/03/12 09:39:37;;;;;;;272.05;110.20;;;;;;;;;;5072190;28;20363;-76
2022/03/12 09:42:03;;;;;;;308.67;131.65;;;;;;;;;;5076210;28;20024;-80
2022/03/12 09:44:28;;;;;;;182.10;79.65;;;;;;;;;;5071616;28;20449;-74
2022/03/12 09:46:55;;;;;;;22.30;13.77;;;;;;;;;;5062282;28;20402;-75
2022/03/12 09:49:20;;;;;;;211.00;102.60;;;;;;;;;;5050890;28;20048;-74
2022/03/12 09:51:46;;;;;;;68.07;35.40;;;;;;;;;;5080583;28;20043;-74
2022/03/12 09:54:12;;;;;;;31.63;17.73;;;;;;;;;;5081306;28;20032;-76
2022/03/12 09:56:38;;;;;;;16.85;11.52;;;;;;;;;;5081073;28;21149;-75
2022/03/12 09:59:05;;;;;;;32.50;22.45;;;;;;;;;;5080789;28;20416;-77
2022/03/12 10:01:31;;;;;;;18.10;13.57;;;;;;;;;;5076032;28;20069;-73
2022/03/12 10:03:56;;;;;;;27.13;18.10;;;;;;;;;;5075226;28;20019;-74
2022/03/12 10:06:22;;;;;;;19.40;13.45;;;;;;;;;;5073362;28;20039;-73
2022/03/12 10:08:47;;;;;;;16.25;11.43;;;;;;;;;;5078228;28;20461;-75
2022/03/12 10:11:13;;;;;;;49.65;29.35;;;;;;;;;;5075088;28;20709;-73
2022/03/12 10:13:38;;;;;;;18.17;12.73;;;;;;;;;;5064728;28;20040;-73
2022/03/12 10:16:04;;;;;;;31.23;19.35;;;;;;;;;;5075580;28;20042;-73
2022/03/12 10:18:30;;;;;;;15.80;11.77;;;;;;;;;;5053012;28;20426;-75
2022/03/12 10:20:57;;;;;;;19.08;13.85;;;;;;;;;;5071989;28;20107;-75
2022/03/12 10:23:23;;;;;;;13.68;9.00;;;;;;;;;;5073146;28;20027;-74
2022/03/12 10:25:48;;;;;;;11.35;9.25;;;;;;;;;;5075610;28;20016;-75
2022/03/12 10:28:14;;;;;;;11.60;8.70;;;;;;;;;;5070822;28;20039;-74
2022/03/12 10:30:39;;;;;;;28.63;16.33;;;;;;;;;;5053501;28;20042;-73
2022/03/12 10:33:05;;;;;;;33.70;24.20;;;;;;;;;;5075239;28;20079;-74
2022/03/12 10:35:35;;;;;;;28.58;16.27;;;;;;;;;;5075062;28;20110;-78
2022/03/12 10:38:01;;;;;;;21.98;15.20;;;;;;;;;;5078505;28;20032;-72
2022/03/12 10:40:27;;;;;;;14.02;9.65;;;;;;;;;;5072576;28;20081;-77
2022/03/12 10:43:19;;;;;;;13.45;9.85;;;;;;;;;;5074567;28;20435;-76
2022/03/12 10:45:48;;;;;;;12.50;9.43;;;;;;;;;;5069011;28;20127;-77
2022/03/12 10:48:17;;;;;;;;;;;;;;;;;;5078027;28;20093;-78
2022/03/12 10:50:43;;;;;;;56.35;29.75;;;;;;;;;;5083809;28;19915;-79
2022/03/12 10:53:09;;;;;;;18.85;13.57;;;;;;;;;;5086183;28;20402;-81
2022/03/12 10:55:37;;;;;;;22.50;14.63;;;;;;;;;;5082878;28;20024;-78
2022/03/12 10:58:03;;;;;;;17.10;10.52;;;;;;;;;;5082918;28;20028;-77
2022/03/12 11:00:29;;;;;;;13.77;9.20;;;;;;;;;;5084971;28;20930;-76
2022/03/12 11:02:57;;;;;;;12.88;9.68;;;;;;;;;;5082279;28;20032;-74
2022/03/12 11:05:27;;;;;;;11.40;8.77;;;;;;;;;;5083340;28;20023;-77
2022/03/12 11:08:04;;;;;;;42.38;26.02;;;;;;;;;;5083118;28;20027;-77
2022/03/12 11:10:33;;;;;;;71.88;40.60;;;;;;;;;;5082085;28;20457;-77
2022/03/12 11:12:59;;;;;;;21.38;14.10;;;;;;;;;;5082501;28;20048;-75
2022/03/12 11:15:24;;;;;;;12.63;9.30;;;;;;;;;;5068238;28;20027;-75
2022/03/12 11:17:51;;;;;;;12.00;9.90;;;;;;;;;;5082330;28;20059;-74
2022/03/12 11:20:27;;;;;;;11.45;8.43;;;;;;;;;;5069571;28;20028;-77
2022/03/12 11:23:12;;;;;;;16.08;10.85;;;;;;;;;;5084531;28;20042;-72
2022/03/12 11:26:10;;;;;;;14.68;11.05;;;;;;;;;;5082584;28;20060;-73
2022/03/12 11:28:36;;;;;;;12.85;9.13;;;;;;;;;;5031765;28;20037;-74
2022/03/12 11:31:03;;;;;;;12.27;8.77;;;;;;;;;;5080962;28;20024;-76
2022/03/12 11:33:28;;;;;;;22.02;15.10;;;;;;;;;;5082640;28;20043;-75
2022/03/12 11:35:58;;;;;;;12.65;8.90;;;;;;;;;;5081489;28;20047;-76
2022/03/12 11:38:24;;;;;;;9.85;8.80;;;;;;;;;;5084080;28;20059;-76
2022/03/12 11:40:50;;;;;;;17.55;11.10;;;;;;;;;;5083263;28;20431;-74
2022/03/12 11:43:24;;;;;;;11.95;7.85;;;;;;;;;;5085710;28;20461;-74
2022/03/12 11:45:49;;;;;;;20.33;15.38;;;;;;;;;;5086807;28;20030;-76
2022/03/12 11:48:15;;;;;;;10.25;8.00;;;;;;;;;;5085826;28;20024;-75
2022/03/12 11:50:41;;;;;;;17.60;10.57;;;;;;;;;;5082163;28;20028;-75
2022/03/12 11:53:07;;;;;;;9.15;7.13;;;;;;;;;;5074433;28;20438;-74
2022/03/12 11:55:33;;;;;;;23.88;15.43;;;;;;;;;;5075079;28;20020;-73
2022/03/12 11:58:01;;;;;;;11.38;8.35;;;;;;;;;;5078146;28;20028;-78
2022/03/12 12:00:30;;;;;;;14.07;10.38;;;;;;;;;;5081061;28;20044;-78
2022/03/12 12:02:56;;;;;;;13.18;9.20;;;;;;;;;;5085789;28;20458;-72
2022/03/12 12:05:23;;;;;;;8.30;7.03;;;;;;;;;;5086614;28;20118;-73
2022/03/12 12:07:51;;;;;;;8.65;7.30;;;;;;;;;;5075097;28;20020;-72
2022/03/12 12:10:17;;;;;;;9.95;7.05;;;;;;;;;;5075496;28;20032;-73
2022/03/12 12:12:44;;;;;;;13.48;10.45;;;;;;;;;;5071879;28;20056;-73
2022/03/12 12:15:19;;;;;;;11.05;7.85;;;;;;;;;;5072420;28;20119;-71
2022/03/12 12:17:45;;;;;;;9.43;7.30;;;;;;;;;;5073313;28;20032;-71
2022/03/12 12:20:15;;;;;;;11.68;8.90;;;;;;;;;;5074445;28;20031;-71
2022/03/12 12:22:41;;;;;;;10.18;7.38;;;;;;;;;;5075776;28;20059;-73
2022/03/12 12:25:06;;;;;;;10.93;8.20;;;;;;;;;;5077395;28;20427;-73
2022/03/12 12:27:41;;;;;;;20.63;14.43;;;;;;;;;;5085917;28;21058;-71
2022/03/12 12:30:09;;;;;;;28.23;19.10;;;;;;;;;;5085283;28;20023;-73
2022/03/12 12:32:43;;;;;;;18.35;12.80;;;;;;;;;;5085647;28;20016;-73
2022/03/12 12:35:13;;;;;;;16.25;11.38;;;;;;;;;;5080502;28;20096;-71
2022/03/12 12:37:57;;;;;;;22.05;14.30;;;;;;;;;;5073491;28;20054;-70
2022/03/12 12:40:31;;;;;;;15.20;11.50;;;;;;;;;;5078779;28;20028;-72
2022/03/12 12:42:58;;;;;;;8.30;6.35;;;;;;;;;;5075043;28;20024;-73
2022/03/12 12:45:26;;;;;;;20.42;12.93;;;;;;;;;;5083366;28;20074;-72
2022/03/12 12:48:14;;;;;;;26.55;17.67;;;;;;;;;;5084333;28;20095;-71
2022/03/12 12:51:00;;;;;;;42.47;22.95;;;;;;;;;;5084486;28;20111;-72
2022/03/12 12:53:29;;;;;;;39.08;24.83;;;;;;;;;;5061162;28;20360;-71
2022/03/12 12:56:13;;;;;;;37.15;21.92;;;;;;;;;;5083150;28;20043;-71
2022/03/12 12:58:46;;;;;;;40.42;25.52;;;;;;;;;;5083492;28;20042;-71
2022/03/12 13:01:15;;;;;;;44.63;27.13;;;;;;;;;;5083860;28;20035;-73
2022/03/12 13:03:43;;;;;;;76.70;44.10;;;;;;;;;;5085636;28;20378;-71
2022/03/12 13:06:11;;;;;;;29.88;17.90;;;;;;;;;;5085701;28;20123;-72
2022/03/12 13:08:43;;;;;;;25.38;16.50;;;;;;;;;;5083990;28;20046;-71
2022/03/12 13:11:27;;;;;;;38.08;24.50;;;;;;;;;;5084576;28;20036;-72
2022/03/12 13:14:00;;;;;;;46.90;29.38;;;;;;;;;;5084860;28;20031;-71
2022/03/12 13:16:26;;;;;;;108.57;56.42;;;;;;;;;;5085363;28;20036;-71
2022/03/12 13:18:52;;;;;;;50.10;26.25;;;;;;;;;;5083589;28;20059;-71
2022/03/12 13:21:28;;;;;;;51.55;30.52;;;;;;;;;;5082595;28;20435;-72
2022/03/12 13:23:53;;;;;;;77.35;41.13;;;;;;;;;;5084261;28;20039;-72
2022/03/12 13:26:18;;;;;;;118.15;63.80;;;;;;;;;;5082522;28;20027;-71
2022/03/12 13:28:45;;;;;;;21.30;12.10;;;;;;;;;;5083183;28;20153;-71
2022/03/12 13:31:13;;;;;;;50.25;33.15;;;;;;;;;;5085092;28;20043;-71
2022/03/12 13:33:39;;;;;;;46.72;27.15;;;;;;;;;;5082882;28;20342;-71
2022/03/12 13:36:05;;;;;;;111.43;67.07;;;;;;;;;;5084234;28;20020;-72
2022/03/12 13:38:30;;;;;;;82.90;50.50;;;;;;;;;;5082657;28;20031;-73
2022/03/12 13:40:55;;;;;;;69.50;38.92;;;;;;;;;;5083678;28;20020;-72
2022/03/12 13:43:23;;;;;;;67.00;36.03;;;;;;;;;;5083125;28;20020;-72
2022/03/12 13:46:01;;;;;;;18.33;10.88;;;;;;;;;;5084101;28;20071;-71
2022/03/12 13:48:26;;;;;;;19.95;12.15;;;;;;;;;;5084356;28;20035;-72
2022/03/12 13:50:56;;;;;;;43.55;26.30;;;;;;;;;;5085152;28;20324;-71
2022/03/12 13:53:26;;;;;;;31.92;22.42;;;;;;;;;;5085238;28;20081;-72
2022/03/12 13:56:00;;;;;;;75.38;46.70;;;;;;;;;;5083810;28;20358;-72
2022/03/12 13:58:29;;;;;;;67.80;43.05;;;;;;;;;;5081402;28;20032;-72
2022/03/12 14:00:57;;;;;;;30.42;18.80;;;;;;;;;;5065427;28;20416;-72
2022/03/12 14:03:22;;;;;;;24.55;15.35;;;;;;;;;;5083714;28;20035;-72
2022/03/12 14:05:48;;;;;;;28.75;20.80;;;;;;;;;;5084759;28;20039;-71
2022/03/12 14:08:19;;;;;;;24.35;17.10;;;;;;;;;;5081845;28;20032;-71
2022/03/12 14:10:49;;;;;;;17.58;11.98;;;;;;;;;;5083631;28;20019;-71
2022/03/12 14:13:20;;;;;;;19.25;12.77;;;;;;;;;;5085432;28;20086;-72